Weather History for Cullman, AL

Change the Weather History Date:

Tuesday, December 11, 2012

  Actual Average (KHSV) Record (KHSV)
Temperature  
Mean Temperature 34 °F 45 °F  
Max Temperature 38 °F 54 °F 77 °F (2007)
Min Temperature 31 °F 35 °F 10 °F (1962)
Degree Days  
Heating Degree Days 30 20  
Month to date heating degree days 210  
Since 1 July heating degree days 737  
Cooling Degree Days 0 0  
Month to date cooling degree days 0  
Year to date cooling degree days 1949  
Moisture  
Dew Point 29 °F    
Average Humidity 80    
Maximum Humidity 90    
Minimum Humidity 65    
Precipitation  
Precipitation 0.00 in 0.21 in 3.30 in (1899)
Month to date precipitation 2.19  
Year to date precipitation 50.76  
Snow  
Snow 0.00 in - - ()
Month to date snowfall  
Since 1 July snowfall  
Snow Depth -    
Sea Level Pressure  
Sea Level Pressure 30.11 in    
Wind  
Wind Speed 6 mph (North)    
Max Wind Speed 12 mph    
Max Gust Speed 17 mph    
Visibility 10 miles    
Events      
T = Trace of Precipitation, MM = Missing Value Source: NWS Daily Summary

Daily Weather History Graph

Daily Weather History Graph

Search for Another Location

Airport:

Trip Planner

Search our weather history database for the weather conditions in past years. The results will help you decide how hot, cold, wet, or windy it might be!

Date:

Astronomy

Dec. 11, 2012 Rise Set
Actual Time 6:43 AM CST 4:38 PM CST
Civil Twilight 6:15 AM CST 5:05 PM CST
Nautical Twilight 5:44 AM CST 5:37 PM CST
Astronomical Twilight 5:14 AM CST 6:07 PM CST
Moon 4:40 AM CST (12/11) 3:14 PM CST (12/11)
Length of Visible Light 10h 49m
Length of Day
9h 54m
Waning Crescent, 4% of the Moon is Illuminated
Dec 11
Waning Crescent
Dec 13
New
Dec 19
First Quarter
Dec 28
Full
Jan 4
Last Quarter

Hourly Weather History & Observations

Time (CST) Temp. Windchill Dew Point Humidity Pressure Visibility Wind Dir Wind Speed Gust Speed Precip Events Conditions
12:15 AM 34.7 °F 30.6 °F 30.9 °F 86% 29.99 in 10.0 mi North 4.6 mph - N/A   Overcast
12:35 AM 34.7 °F 28.1 °F 30.9 °F 86% 29.99 in 10.0 mi North 8.1 mph - N/A   Overcast
12:55 AM 34.3 °F 27.7 °F 30.9 °F 87% 29.99 in 10.0 mi NNW 8.1 mph - N/A   Overcast
1:15 AM 34.2 °F 28.2 °F 30.2 °F 85% 29.99 in 10.0 mi North 6.9 mph - N/A   Overcast
1:35 AM 34.2 °F 28.2 °F 30.6 °F 87% 30.00 in 10.0 mi North 6.9 mph - N/A   Overcast
1:55 AM 34.2 °F 29.0 °F 30.7 °F 87% 30.00 in 10.0 mi NNW 5.8 mph - N/A   Overcast
2:15 AM 34.2 °F 28.2 °F 31.1 °F 89% 30.01 in 10.0 mi NNW 6.9 mph - N/A   Overcast
2:35 AM 34.2 °F 26.8 °F 30.9 °F 88% 30.01 in 10.0 mi NNW 9.2 mph - N/A   Overcast
2:55 AM 34.0 °F 28.0 °F 30.4 °F 87% 30.01 in 10.0 mi North 6.9 mph - N/A   Overcast
3:15 AM 34.0 °F 28.0 °F 30.6 °F 87% 30.01 in 10.0 mi NNW 6.9 mph - N/A   Overcast
3:35 AM 34.0 °F 26.6 °F 30.6 °F 87% 30.01 in 10.0 mi North 9.2 mph - N/A   Overcast
3:55 AM 34.0 °F 29.8 °F 30.7 °F 88% 30.02 in 10.0 mi NNW 4.6 mph - N/A   Overcast
4:15 AM 33.8 °F 28.6 °F 30.4 °F 87% 30.03 in 10.0 mi North 5.8 mph - N/A   Overcast
4:35 AM 33.8 °F 27.7 °F 30.2 °F 87% 30.03 in 10.0 mi North 6.9 mph - N/A   Overcast
4:55 AM 33.6 °F 28.4 °F 30.4 °F 88% 30.04 in 10.0 mi North 5.8 mph - N/A   Overcast
5:15 AM 33.1 °F 27.7 °F 30.4 °F 90% 30.05 in 10.0 mi North 5.8 mph - N/A   Overcast
5:35 AM 32.5 °F 27.1 °F 29.8 °F 90% 30.07 in 10.0 mi North 5.8 mph - N/A   Overcast
6:15 AM 32.0 °F 24.8 °F 28.9 °F 88% 30.07 in 10.0 mi North 8.1 mph - N/A   Overcast
6:35 AM 31.8 °F 24.6 °F 28.2 °F 87% 30.07 in 10.0 mi North 8.1 mph - N/A   Overcast
6:55 AM 31.6 °F 25.1 °F 28.0 °F 87% 30.08 in 10.0 mi North 6.9 mph - N/A   Overcast
7:15 AM 31.5 °F 24.2 °F 27.5 °F 85% 30.10 in 10.0 mi North 8.1 mph - N/A   Overcast
7:35 AM 31.5 °F 24.9 °F 27.3 °F 85% 30.11 in 10.0 mi NNW 6.9 mph - N/A   Overcast
7:55 AM 31.8 °F 23.3 °F 27.5 °F 84% 30.11 in 10.0 mi North 10.4 mph - N/A   Overcast
8:15 AM 31.6 °F 26.0 °F 27.3 °F 84% 30.12 in 10.0 mi North 5.8 mph - N/A   Overcast
8:35 AM 31.5 °F 24.2 °F 26.8 °F 83% 30.13 in 10.0 mi North 8.1 mph - N/A   Overcast
8:55 AM 31.5 °F 23.5 °F 26.8 °F 83% 30.14 in 10.0 mi NNE 9.2 mph 17.3 mph N/A   Overcast
9:15 AM 31.6 °F 23.1 °F 26.6 °F 82% 30.14 in 10.0 mi North 10.4 mph - N/A   Overcast
9:35 AM 32.0 °F 23.0 °F 26.6 °F 80% 30.13 in 10.0 mi NNW 11.5 mph - N/A   Overcast
9:55 AM 32.0 °F 25.6 °F 27.0 °F 82% 30.14 in 10.0 mi North 6.9 mph - N/A   Overcast
10:15 AM 32.7 °F 25.0 °F 27.7 °F 82% 30.15 in 10.0 mi North 9.2 mph - N/A   Overcast
10:35 AM 33.8 °F 28.6 °F 27.9 °F 79% 30.14 in 10.0 mi North 5.8 mph - N/A   Overcast
10:55 AM 34.2 °F 28.2 °F 27.5 °F 77% 30.15 in 10.0 mi NNW 6.9 mph - N/A   Overcast
11:15 AM 34.7 °F 26.9 °F 27.0 °F 73% 30.14 in 10.0 mi NNE 10.4 mph - N/A   Scattered Clouds
11:35 AM 36.0 °F 29.6 °F 27.5 °F 71% 30.12 in 10.0 mi North 8.1 mph - N/A   Scattered Clouds
11:55 AM 36.7 °F 29.4 °F 27.9 °F 70% 30.12 in 10.0 mi North 10.4 mph - N/A   Scattered Clouds
12:15 PM 37.0 °F 31.6 °F 27.9 °F 69% 30.12 in 10.0 mi NNW 6.9 mph - N/A   Scattered Clouds
12:35 PM 37.9 °F 33.5 °F 27.7 °F 67% 30.12 in 10.0 mi North 5.8 mph - N/A   Clear
12:55 PM 38.5 °F 32.7 °F 27.7 °F 65% 30.12 in 10.0 mi NNW 8.1 mph - N/A   Clear
1:15 PM 38.8 °F 35.4 °F 28.2 °F 66% 30.11 in 10.0 mi NW 4.6 mph - N/A   Clear
1:35 PM 38.8 °F 33.2 °F 28.4 °F 66% 30.12 in 10.0 mi NNW 8.1 mph - N/A   Clear
1:55 PM 38.5 °F 33.4 °F 28.4 °F 67% 30.12 in 10.0 mi North 6.9 mph - N/A   Clear
2:15 PM 38.5 °F 32.1 °F 28.2 °F 67% 30.11 in 10.0 mi NNW 9.2 mph - N/A   Clear
2:35 PM 38.5 °F 33.4 °F 27.7 °F 65% 30.12 in 10.0 mi North 6.9 mph - N/A   Clear
2:55 PM 37.9 °F 33.5 °F 27.9 °F 67% 30.12 in 10.0 mi North 5.8 mph - N/A   Clear
3:15 PM 37.9 °F 34.4 °F 28.0 °F 68% 30.13 in 10.0 mi North 4.6 mph - N/A   Clear
3:35 PM 37.9 °F 35.5 °F 28.0 °F 68% 30.13 in 10.0 mi NNW 3.5 mph - N/A   Clear
3:55 PM 37.8 °F 35.3 °F 28.6 °F 69% 30.13 in 10.0 mi North 3.5 mph - N/A   Clear
4:15 PM 37.2 °F 34.7 °F 28.4 °F 70% 30.14 in 10.0 mi North 3.5 mph - N/A   Clear
4:35 PM 36.7 °F - 28.4 °F 72% 30.14 in 10.0 mi Calm Calm - N/A   Clear
4:55 PM 36.0 °F - 28.6 °F 75% 30.14 in 10.0 mi Calm Calm - N/A   Clear
5:15 PM 34.7 °F - 29.3 °F 81% 30.15 in 10.0 mi Calm Calm - N/A   Clear
5:35 PM 33.6 °F - 30.0 °F 87% 30.15 in 10.0 mi Calm Calm - N/A   Clear
5:55 PM 32.9 °F - 30.4 °F 90% 30.15 in 10.0 mi Calm Calm - N/A   Clear
6:15 PM 33.1 °F 28.7 °F 29.8 °F 88% 30.14 in 10.0 mi NNE 4.6 mph - N/A   Clear
6:35 PM 33.6 °F 30.6 °F 29.1 °F 84% 30.15 in 10.0 mi North 3.5 mph - N/A   Clear
6:55 PM 33.8 °F 30.8 °F 28.9 °F 82% 30.16 in 10.0 mi NNE 3.5 mph - N/A   Clear
7:15 PM 33.3 °F - 29.1 °F 85% 30.17 in 10.0 mi Calm Calm - N/A   Clear
7:35 PM 33.3 °F 30.2 °F 28.9 °F 84% 30.18 in 10.0 mi NNE 3.5 mph - N/A   Clear
7:55 PM 32.9 °F 28.5 °F 29.3 °F 87% 30.17 in 10.0 mi NNE 4.6 mph - N/A   Clear
8:15 PM 33.4 °F 28.1 °F 28.4 °F 82% 30.18 in 10.0 mi North 5.8 mph - N/A   Clear
8:35 PM 34.2 °F 29.0 °F 27.5 °F 77% 30.18 in 10.0 mi North 5.8 mph - N/A   Clear
8:55 PM 34.3 °F 28.4 °F 27.3 °F 76% 30.19 in 10.0 mi North 6.9 mph - N/A   Clear
9:15 PM 34.7 °F 30.6 °F 27.1 °F 74% 30.19 in 10.0 mi North 4.6 mph - N/A   Clear
9:35 PM 34.3 °F 30.2 °F 27.3 °F 76% 30.19 in 10.0 mi North 4.6 mph - N/A   Clear
9:55 PM 34.2 °F 30.0 °F 27.5 °F 77% 30.19 in 10.0 mi North 4.6 mph - N/A   Clear
10:15 PM 33.8 °F 30.8 °F 27.7 °F 78% 30.20 in 10.0 mi North 3.5 mph - N/A   Clear
10:35 PM 33.3 °F 28.9 °F 27.9 °F 81% 30.20 in 10.0 mi North 4.6 mph - N/A   Clear
10:55 PM 32.9 °F 29.8 °F 27.5 °F 81% 30.22 in 10.0 mi North 3.5 mph - N/A   Clear
11:15 PM 32.2 °F 27.7 °F 27.1 °F 82% 30.22 in 10.0 mi North 4.6 mph - N/A   Clear
11:35 PM 32.0 °F 26.4 °F 27.3 °F 83% 30.22 in 10.0 mi North 5.8 mph - N/A   Clear
11:55 PM 32.0 °F 27.5 °F 27.1 °F 82% 30.21 in 10.0 mi North 4.6 mph - N/A   Clear